createdAt,value
2018-09-30T00:01:37.759Z,4.23
2018-09-30T00:04:05.617Z,8.43
2018-09-30T00:06:34.578Z,3.97
2018-09-30T00:09:03.730Z,3.23
2018-09-30T00:11:31.507Z,4.17
2018-09-30T00:13:59.339Z,5.93
2018-09-30T00:16:28.302Z,3.40
2018-09-30T00:18:56.061Z,6.20
2018-09-30T00:21:24.033Z,5.47
2018-09-30T00:23:57.065Z,5.13
2018-09-30T00:26:30.102Z,5.50
2018-09-30T00:28:59.052Z,6.20
2018-09-30T00:31:26.896Z,7.80
2018-09-30T00:33:59.919Z,5.67
2018-09-30T00:36:27.771Z,7.93
2018-09-30T00:38:55.607Z,4.77
2018-09-30T00:41:23.389Z,5.90
2018-09-30T00:43:51.173Z,5.07
2018-09-30T00:46:20.146Z,3.70
2018-09-30T00:48:47.947Z,6.47
2018-09-30T00:51:15.745Z,9.97
2018-09-30T00:53:43.522Z,5.13
2018-09-30T00:56:11.318Z,5.10
2018-09-30T00:58:39.326Z,7.60
2018-09-30T01:01:07.145Z,6.87
2018-09-30T01:03:34.918Z,7.83
2018-09-30T01:06:02.706Z,5.23
2018-09-30T01:08:30.467Z,4.97
2018-09-30T01:10:58.349Z,6.20
2018-09-30T01:13:26.141Z,5.27
2018-09-30T01:15:55.122Z,7.03
2018-09-30T01:18:24.089Z,7.43
2018-09-30T01:20:51.992Z,6.27
2018-09-30T01:23:21.027Z,4.73
2018-09-30T01:25:48.841Z,5.73
2018-09-30T01:28:16.645Z,4.40
2018-09-30T01:30:45.639Z,6.30
2018-09-30T01:33:13.426Z,8.30
2018-09-30T01:35:41.221Z,3.77
2018-09-30T01:38:09.058Z,4.17
2018-09-30T01:40:36.890Z,5.47
2018-09-30T01:43:05.850Z,5.23
2018-09-30T01:45:33.630Z,5.93
2018-09-30T01:48:01.423Z,6.13
2018-09-30T01:50:29.225Z,4.27
2018-09-30T01:52:58.708Z,4.97
2018-09-30T01:55:26.532Z,6.23
2018-09-30T01:57:55.605Z,3.73
2018-09-30T02:00:23.607Z,7.07
2018-09-30T02:02:51.375Z,6.03
2018-09-30T02:05:20.344Z,4.37
2018-09-30T02:07:48.917Z,5.83
2018-09-30T02:10:17.225Z,5.07
2018-09-30T02:12:45.081Z,3.83
2018-09-30T02:15:12.846Z,6.53
2018-09-30T02:17:41.809Z,5.40
2018-09-30T02:20:09.688Z,6.30
2018-09-30T02:22:38.716Z,3.17
2018-09-30T02:25:06.525Z,8.10
2018-09-30T02:27:34.362Z,4.37
2018-09-30T02:30:02.152Z,4.87
2018-09-30T02:32:30.033Z,5.60
2018-09-30T02:34:57.813Z,7.60
2018-09-30T02:37:25.570Z,6.00
2018-09-30T02:39:53.464Z,3.90
2018-09-30T02:42:21.266Z,5.33
2018-09-30T02:44:49.126Z,5.00
2018-09-30T02:47:16.898Z,6.27
2018-09-30T02:49:44.718Z,3.77
2018-09-30T02:52:12.563Z,4.83
2018-09-30T02:54:40.330Z,4.57
2018-09-30T02:57:08.125Z,3.23
2018-09-30T02:59:35.891Z,4.70
2018-09-30T03:02:03.722Z,6.33
2018-09-30T03:04:31.496Z,4.33
2018-09-30T03:07:04.554Z,6.23
2018-09-30T03:09:32.399Z,5.07
2018-09-30T03:12:00.213Z,4.10
2018-09-30T03:14:28.013Z,3.40
2018-09-30T03:16:55.844Z,5.87
2018-09-30T03:19:23.615Z,4.03
2018-09-30T03:21:51.411Z,7.10
2018-09-30T03:24:20.398Z,8.53
2018-09-30T03:26:48.217Z,6.47
2018-09-30T03:29:16.003Z,4.80
2018-09-30T03:31:43.777Z,6.93
2018-09-30T03:34:11.582Z,3.80
2018-09-30T03:36:39.418Z,6.47
2018-09-30T03:39:08.011Z,4.00
2018-09-30T03:41:35.855Z,6.33
2018-09-30T03:44:03.651Z,6.53
2018-09-30T03:46:31.495Z,9.97
2018-09-30T03:48:59.281Z,4.90
2018-09-30T03:51:27.106Z,4.57
2018-09-30T03:53:54.931Z,6.37
2018-09-30T03:56:23.663Z,13.40
2018-09-30T03:58:51.486Z,4.87
2018-09-30T04:01:19.286Z,3.67
2018-09-30T04:03:47.090Z,4.30
2018-09-30T04:06:14.846Z,4.43
2018-09-30T04:08:42.630Z,8.80
2018-09-30T04:11:10.402Z,5.53
2018-09-30T04:13:38.259Z,3.70
2018-09-30T04:16:06.122Z,5.53
2018-09-30T04:18:33.913Z,4.07
2018-09-30T04:21:01.746Z,7.93
2018-09-30T04:23:29.563Z,3.90
2018-09-30T04:25:57.374Z,4.13
2018-09-30T04:28:25.214Z,5.27
2018-09-30T04:30:53.050Z,5.43
2018-09-30T04:33:20.899Z,6.83
2018-09-30T04:35:48.709Z,7.57
2018-09-30T04:38:16.469Z,5.60
2018-09-30T04:40:44.281Z,4.87
2018-09-30T04:43:12.153Z,8.93
2018-09-30T04:45:39.932Z,5.60
2018-09-30T04:48:07.751Z,6.10
2018-09-30T04:50:36.702Z,5.30
2018-09-30T04:53:04.513Z,6.63
2018-09-30T04:55:32.304Z,7.97
2018-09-30T04:58:00.152Z,6.07
2018-09-30T05:00:29.120Z,6.00
2018-09-30T05:02:56.922Z,7.97
2018-09-30T05:05:24.716Z,5.53
2018-09-30T05:07:52.694Z,9.77
2018-09-30T05:10:20.508Z,6.93
2018-09-30T05:12:48.358Z,12.00
2018-09-30T05:15:16.144Z,8.10
2018-09-30T05:17:43.913Z,6.50
2018-09-30T05:20:11.782Z,6.60
2018-09-30T05:22:39.559Z,11.57
2018-09-30T05:25:07.337Z,8.07
2018-09-30T05:27:35.112Z,9.70
2018-09-30T05:30:02.894Z,8.07
2018-09-30T05:32:30.706Z,5.97
2018-09-30T05:34:58.471Z,7.97
2018-09-30T05:37:26.246Z,5.73
2018-09-30T05:39:54.039Z,6.97
2018-09-30T05:42:21.886Z,7.33
2018-09-30T05:44:49.671Z,6.17
2018-09-30T05:47:17.434Z,5.00
2018-09-30T05:49:46.398Z,4.33
2018-09-30T05:52:15.350Z,5.53
2018-09-30T05:54:43.178Z,7.30
2018-09-30T05:57:10.978Z,8.73
2018-09-30T05:59:38.809Z,7.93
2018-09-30T06:02:07.859Z,6.63
2018-09-30T06:04:35.715Z,10.53
2018-09-30T06:07:03.486Z,8.70
2018-09-30T06:09:31.390Z,9.20
2018-09-30T06:11:59.099Z,7.43
2018-09-30T06:14:28.084Z,7.30
2018-09-30T06:16:55.879Z,12.10
2018-09-30T06:19:23.638Z,4.17
2018-09-30T06:21:51.478Z,7.10
2018-09-30T06:24:19.237Z,7.27
2018-09-30T06:26:48.195Z,9.50
2018-09-30T06:29:16.050Z,9.67
2018-09-30T06:31:43.848Z,4.60
2018-09-30T06:34:11.618Z,5.47
2018-09-30T06:36:39.410Z,10.13
2018-09-30T06:39:07.966Z,8.07
2018-09-30T06:41:37.061Z,7.27
2018-09-30T06:44:05.153Z,7.90
2018-09-30T06:46:32.975Z,5.27
2018-09-30T06:49:01.941Z,7.40
2018-09-30T06:51:29.938Z,6.63
2018-09-30T06:53:57.749Z,10.20
2018-09-30T06:56:25.665Z,4.63
2018-09-30T06:58:53.469Z,12.00
2018-09-30T07:01:21.255Z,8.70
2018-09-30T07:03:49.032Z,6.47
2018-09-30T07:06:16.899Z,7.80
2018-09-30T07:08:44.659Z,7.67
2018-09-30T07:11:12.431Z,11.60
2018-09-30T07:13:41.411Z,7.17
2018-09-30T07:16:09.221Z,8.60
2018-09-30T07:18:37.039Z,5.93
2018-09-30T07:21:04.850Z,4.63
2018-09-30T07:23:32.673Z,6.57
2018-09-30T07:26:00.473Z,6.13
2018-09-30T07:28:28.306Z,5.20
2018-09-30T07:30:57.301Z,5.23
2018-09-30T07:33:26.355Z,4.00
2018-09-30T07:35:55.315Z,3.87
2018-09-30T07:38:23.083Z,8.33
2018-09-30T07:40:50.863Z,3.97
2018-09-30T07:43:18.632Z,5.40
2018-09-30T07:45:47.621Z,4.00
2018-09-30T07:48:15.398Z,3.73
2018-09-30T07:50:43.234Z,5.30
2018-09-30T07:53:10.994Z,5.90
2018-09-30T07:55:38.810Z,4.70
2018-09-30T07:58:06.656Z,6.83
2018-09-30T08:00:34.454Z,9.30
2018-09-30T08:03:02.269Z,7.80
2018-09-30T08:05:30.026Z,4.80
2018-09-30T08:07:57.901Z,5.93
2018-09-30T08:10:25.679Z,10.17
2018-09-30T08:12:53.453Z,8.50
2018-09-30T08:15:21.286Z,5.93
2018-09-30T08:17:50.244Z,4.73
2018-09-30T08:20:18.086Z,7.30
2018-09-30T08:22:47.196Z,4.53
2018-09-30T08:25:17.096Z,5.37
2018-09-30T08:27:44.886Z,9.87
2018-09-30T08:30:12.645Z,5.33
2018-09-30T08:32:40.445Z,8.67
2018-09-30T08:35:08.212Z,8.63
2018-09-30T08:37:41.349Z,6.63
2018-09-30T08:40:09.207Z,5.80
2018-09-30T08:42:36.993Z,9.27
2018-09-30T08:45:04.788Z,7.20
2018-09-30T08:47:32.631Z,4.10
2018-09-30T08:50:00.485Z,4.87
2018-09-30T08:52:28.309Z,4.93
2018-09-30T08:54:57.324Z,8.30
2018-09-30T08:57:26.315Z,5.40
2018-09-30T08:59:54.227Z,9.00
2018-09-30T09:02:22.466Z,5.40
2018-09-30T09:04:50.286Z,8.37
2018-09-30T09:07:19.266Z,11.90
2018-09-30T09:09:48.262Z,9.40
2018-09-30T09:12:16.041Z,9.23
2018-09-30T09:14:43.879Z,5.70
2018-09-30T09:17:11.777Z,8.83
2018-09-30T09:19:39.533Z,5.63
2018-09-30T09:22:07.313Z,8.20
2018-09-30T09:24:36.639Z,9.37
2018-09-30T09:27:04.424Z,6.33
2018-09-30T09:29:32.218Z,9.13
2018-09-30T09:31:59.985Z,11.53
2018-09-30T09:34:28.043Z,9.37
2018-09-30T09:36:56.061Z,4.90
2018-09-30T09:39:23.909Z,8.87
2018-09-30T09:41:51.689Z,6.50
2018-09-30T09:44:19.566Z,6.47
2018-09-30T09:46:47.342Z,6.23
2018-09-30T09:49:15.140Z,6.60
2018-09-30T09:51:43.021Z,6.00
2018-09-30T09:54:11.037Z,8.47
2018-09-30T09:56:39.039Z,11.50
2018-09-30T09:59:06.856Z,9.90
2018-09-30T10:01:35.806Z,8.57
2018-09-30T10:04:03.809Z,9.30
2018-09-30T10:06:31.665Z,8.23
2018-09-30T10:08:59.717Z,9.43
2018-09-30T10:11:28.733Z,11.60
2018-09-30T10:13:56.648Z,7.70
2018-09-30T10:16:24.457Z,7.37
2018-09-30T10:18:52.316Z,6.50
2018-09-30T10:21:20.103Z,7.63
2018-09-30T10:23:47.869Z,6.40
2018-09-30T10:26:15.663Z,13.40
2018-09-30T10:28:43.446Z,9.97
2018-09-30T10:31:12.591Z,7.37
2018-09-30T10:33:40.394Z,7.03
2018-09-30T10:36:08.141Z,8.17
2018-09-30T10:38:36.143Z,7.37
2018-09-30T10:41:03.944Z,6.53
2018-09-30T10:43:31.863Z,11.00
2018-09-30T10:45:59.745Z,6.73
2018-09-30T10:48:27.617Z,7.70
2018-09-30T10:50:55.425Z,10.53
2018-09-30T10:53:23.238Z,6.97
2018-09-30T10:55:51.081Z,8.57
2018-09-30T10:58:20.050Z,8.47
2018-09-30T11:00:47.830Z,7.70
2018-09-30T11:03:15.641Z,6.97
2018-09-30T11:05:43.554Z,6.07
2018-09-30T11:08:11.396Z,7.60
2018-09-30T11:10:39.217Z,8.77
2018-09-30T11:13:07.127Z,8.07
2018-09-30T11:15:34.931Z,6.47
2018-09-30T11:18:02.750Z,13.60
2018-09-30T11:20:31.718Z,7.63
2018-09-30T11:22:59.579Z,7.63
2018-09-30T11:25:27.485Z,11.47
2018-09-30T11:27:55.410Z,8.53
2018-09-30T11:30:24.823Z,7.43
2018-09-30T11:32:52.682Z,9.07
2018-09-30T11:35:20.482Z,7.97
2018-09-30T11:37:48.329Z,7.90
2018-09-30T11:40:16.187Z,7.90
2018-09-30T11:42:44.003Z,9.50
2018-09-30T11:45:11.770Z,9.03
2018-09-30T11:47:39.596Z,8.20
2018-09-30T11:50:07.407Z,9.53
2018-09-30T11:52:35.223Z,9.63
2018-09-30T11:55:03.029Z,9.20
2018-09-30T11:57:30.840Z,8.23
2018-09-30T11:59:59.818Z,8.30
2018-09-30T12:02:27.696Z,9.27
2018-09-30T12:04:55.530Z,8.30
2018-09-30T12:07:23.314Z,8.93
2018-09-30T12:09:51.173Z,11.60
2018-09-30T12:12:18.976Z,9.17
2018-09-30T12:14:47.947Z,9.07
2018-09-30T12:17:15.737Z,9.63
2018-09-30T12:19:43.509Z,9.40
2018-09-30T12:22:11.416Z,12.50
2018-09-30T12:24:39.197Z,10.53
2018-09-30T12:27:06.975Z,11.10
2018-09-30T12:29:34.807Z,10.27
2018-09-30T12:32:02.606Z,12.43
2018-09-30T12:34:30.422Z,12.27
2018-09-30T12:36:58.294Z,12.83
2018-09-30T12:39:26.299Z,14.13
2018-09-30T12:41:54.160Z,9.77
2018-09-30T12:44:21.930Z,9.77
2018-09-30T12:46:49.829Z,9.17
2018-09-30T12:49:17.749Z,10.57
2018-09-30T12:51:45.539Z,10.53
2018-09-30T12:54:13.377Z,11.87
2018-09-30T12:56:41.262Z,10.00
2018-09-30T12:59:09.254Z,14.47
2018-09-30T13:01:37.174Z,15.40
2018-09-30T13:04:06.522Z,15.43
2018-09-30T13:06:34.369Z,18.67
2018-09-30T13:09:02.272Z,19.20
2018-09-30T13:11:30.205Z,13.97
2018-09-30T13:13:58.160Z,16.80
2018-09-30T13:16:26.068Z,14.73
2018-09-30T13:18:53.956Z,16.93
2018-09-30T13:21:21.836Z,18.80
2018-09-30T13:23:50.783Z,17.73
2018-09-30T13:26:18.581Z,14.77
2018-09-30T13:28:46.356Z,15.67
2018-09-30T13:31:15.329Z,15.50
2018-09-30T13:33:44.582Z,19.20
2018-09-30T13:36:12.444Z,13.93
2018-09-30T13:38:40.278Z,14.53
2018-09-30T13:41:08.214Z,15.17
2018-09-30T13:43:35.888Z,13.17
2018-09-30T13:46:04.924Z,14.57
2018-09-30T13:48:32.706Z,14.90
2018-09-30T13:51:00.496Z,14.03
2018-09-30T13:53:28.336Z,13.63
2018-09-30T13:55:56.137Z,15.13
2018-09-30T13:58:23.972Z,12.67
2018-09-30T14:00:51.747Z,11.80
2018-09-30T14:03:19.522Z,10.27
2018-09-30T14:05:47.386Z,14.40
2018-09-30T14:08:15.169Z,12.83
2018-09-30T14:10:43.069Z,10.50
2018-09-30T14:13:10.853Z,10.30
2018-09-30T14:15:38.617Z,14.03
2018-09-30T14:18:06.485Z,10.83
2018-09-30T14:20:34.238Z,9.57
2018-09-30T14:23:02.084Z,12.53
2018-09-30T14:25:29.886Z,10.83
2018-09-30T14:27:57.678Z,10.80
2018-09-30T14:30:25.478Z,8.10
2018-09-30T14:32:53.243Z,11.70
2018-09-30T14:35:21.082Z,12.03
2018-09-30T14:37:48.873Z,13.00
2018-09-30T14:40:16.703Z,13.43
2018-09-30T14:42:45.652Z,11.40
2018-09-30T14:45:13.639Z,14.10
2018-09-30T14:47:42.857Z,12.53
2018-09-30T14:50:10.734Z,12.43
2018-09-30T14:52:38.624Z,10.07
2018-09-30T14:55:06.579Z,12.13
2018-09-30T14:57:34.550Z,12.00
2018-09-30T15:00:03.527Z,11.67
2018-09-30T15:02:31.289Z,9.77
2018-09-30T15:04:59.070Z,11.60
2018-09-30T15:07:26.911Z,11.17
2018-09-30T15:09:54.699Z,9.90
2018-09-30T15:12:22.477Z,12.27
2018-09-30T15:14:51.503Z,8.83
2018-09-30T15:17:19.359Z,13.70
2018-09-30T15:19:47.129Z,15.07
2018-09-30T15:22:16.119Z,16.90
2018-09-30T15:24:43.901Z,15.50
2018-09-30T15:27:11.698Z,19.30
2018-09-30T15:29:39.506Z,16.40
2018-09-30T15:32:07.418Z,17.97
2018-09-30T15:34:35.336Z,19.30
2018-09-30T15:37:03.178Z,20.70
2018-09-30T15:39:30.999Z,18.57
2018-09-30T15:41:58.802Z,20.37
2018-09-30T15:44:26.654Z,29.07
2018-09-30T15:46:54.443Z,27.63
2018-09-30T15:49:22.327Z,22.67
2018-09-30T15:51:50.100Z,22.43
2018-09-30T15:54:17.894Z,22.90
2018-09-30T15:56:45.716Z,22.60
2018-09-30T15:59:13.518Z,19.80
2018-09-30T16:01:41.313Z,23.30
2018-09-30T16:04:09.097Z,23.60
2018-09-30T16:06:37.032Z,19.70
2018-09-30T16:09:05.630Z,21.60
2018-09-30T16:11:33.413Z,22.13
2018-09-30T16:14:01.255Z,26.03
2018-09-30T16:16:30.232Z,29.90
2018-09-30T16:18:58.160Z,28.57
2018-09-30T16:21:26.162Z,28.47
2018-09-30T16:23:54.018Z,23.30
2018-09-30T16:26:22.103Z,18.10
2018-09-30T16:28:50.011Z,22.97
2018-09-30T16:31:17.955Z,23.63
2018-09-30T16:33:45.997Z,23.63
2018-09-30T16:36:13.958Z,34.47
2018-09-30T16:38:41.849Z,39.10
2018-09-30T16:41:09.659Z,31.27
2018-09-30T16:43:37.539Z,21.73
2018-09-30T16:46:05.327Z,20.07
2018-09-30T16:48:33.162Z,18.63
2018-09-30T16:51:00.996Z,20.50
2018-09-30T16:53:28.899Z,25.33
2018-09-30T16:55:56.781Z,23.47
2018-09-30T16:58:24.629Z,21.70
2018-09-30T17:00:52.514Z,20.57
2018-09-30T17:03:20.322Z,20.20
2018-09-30T17:05:48.172Z,21.80
2018-09-30T17:08:16.003Z,25.83
2018-09-30T17:10:43.823Z,24.43
2018-09-30T17:13:11.688Z,26.30
2018-09-30T17:15:39.618Z,21.37
2018-09-30T17:18:07.575Z,19.60
2018-09-30T17:20:35.446Z,20.73
2018-09-30T17:23:03.272Z,24.60
2018-09-30T17:25:31.108Z,23.53
2018-09-30T17:27:59.334Z,27.80
2018-09-30T17:30:28.340Z,22.97
2018-09-30T17:32:56.127Z,25.33
2018-09-30T17:35:24.054Z,20.90
2018-09-30T17:37:52.109Z,18.77
2018-09-30T17:40:20.122Z,16.63
2018-09-30T17:42:47.922Z,19.30
2018-09-30T17:45:15.739Z,16.60
2018-09-30T17:47:43.602Z,15.97
2018-09-30T17:50:11.377Z,17.57
2018-09-30T17:52:39.266Z,15.33
2018-09-30T17:55:07.341Z,17.20
2018-09-30T17:57:35.455Z,17.07
2018-09-30T18:00:03.534Z,15.13
2018-09-30T18:02:31.330Z,18.40
2018-09-30T18:04:59.166Z,17.77
2018-09-30T18:07:27.070Z,22.30
2018-09-30T18:09:54.858Z,20.87
2018-09-30T18:12:22.773Z,20.87
2018-09-30T18:14:50.639Z,24.57
2018-09-30T18:17:18.641Z,24.43
2018-09-30T18:19:46.554Z,24.27
2018-09-30T18:22:14.417Z,25.33
2018-09-30T18:24:42.297Z,23.10
2018-09-30T18:27:11.544Z,21.27
2018-09-30T18:29:39.543Z,23.47
2018-09-30T18:32:07.362Z,20.13
2018-09-30T18:34:35.140Z,22.17
2018-09-30T18:37:03.069Z,21.57
2018-09-30T18:39:30.990Z,20.40
2018-09-30T18:41:58.783Z,20.40
2018-09-30T18:44:26.562Z,22.00
2018-09-30T18:46:54.374Z,23.03
2018-09-30T18:49:22.305Z,26.70
2018-09-30T18:51:50.156Z,23.37
2018-09-30T18:54:17.934Z,21.63
2018-09-30T18:56:45.697Z,21.73
2018-09-30T18:59:13.534Z,25.30
2018-09-30T19:01:41.534Z,27.73
2018-09-30T19:04:09.422Z,25.13
2018-09-30T19:06:37.317Z,19.67
2018-09-30T19:09:06.878Z,19.20
2018-09-30T19:11:34.858Z,20.13
2018-09-30T19:14:02.804Z,20.73
2018-09-30T19:16:30.714Z,24.63
2018-09-30T19:18:58.723Z,19.30
2018-09-30T19:21:26.561Z,18.83
2018-09-30T19:23:54.468Z,19.43
2018-09-30T19:26:22.297Z,23.23
2018-09-30T19:28:50.250Z,22.47
2018-09-30T19:31:18.045Z,21.70
2018-09-30T19:33:46.201Z,18.30
2018-09-30T19:36:15.189Z,20.37
2018-09-30T19:38:43.018Z,18.90
2018-09-30T19:41:12.164Z,24.53
2018-09-30T19:43:40.219Z,21.40
2018-09-30T19:46:08.072Z,22.17
2018-09-30T19:48:36.007Z,26.03
2018-09-30T19:51:03.767Z,25.33
2018-09-30T19:53:31.611Z,22.57
2018-09-30T19:55:59.810Z,28.00
2018-09-30T19:58:27.592Z,27.57
2018-09-30T20:00:55.473Z,24.90
2018-09-30T20:03:23.233Z,27.60
2018-09-30T20:05:51.072Z,27.27
2018-09-30T20:08:18.849Z,24.00
2018-09-30T20:10:46.624Z,27.90
2018-09-30T20:13:14.485Z,25.47
2018-09-30T20:15:42.277Z,26.67
2018-09-30T20:18:10.094Z,22.20
2018-09-30T20:20:37.897Z,23.10
2018-09-30T20:23:05.669Z,23.57
2018-09-30T20:25:33.576Z,23.93
2018-09-30T20:28:01.373Z,23.77
2018-09-30T20:30:29.182Z,27.20
2018-09-30T20:32:56.962Z,26.07
2018-09-30T20:35:24.761Z,26.47
2018-09-30T20:37:52.745Z,21.17
2018-09-30T20:40:20.501Z,21.03
2018-09-30T20:42:48.285Z,19.73
2018-09-30T20:45:16.100Z,22.87
2018-09-30T20:47:43.881Z,20.93
2018-09-30T20:50:12.869Z,20.50
2018-09-30T20:52:40.666Z,19.07
2018-09-30T20:55:08.525Z,19.60
2018-09-30T20:57:36.368Z,22.67
2018-09-30T21:00:04.283Z,25.17
2018-09-30T21:02:32.091Z,24.53
2018-09-30T21:05:02.736Z,18.07
2018-09-30T21:07:30.546Z,21.93
2018-09-30T21:09:58.368Z,20.40
2018-09-30T21:12:26.174Z,20.00
2018-09-30T21:14:53.941Z,21.97
2018-09-30T21:17:21.790Z,21.37
2018-09-30T21:19:49.562Z,21.83
2018-09-30T21:22:17.325Z,22.20
2018-09-30T21:24:45.106Z,23.17
2018-09-30T21:27:12.866Z,20.27
2018-09-30T21:29:40.649Z,16.43
2018-09-30T21:32:08.511Z,18.30
2018-09-30T21:34:36.297Z,19.60
2018-09-30T21:37:04.187Z,17.70
2018-09-30T21:39:31.957Z,18.27
2018-09-30T21:41:59.789Z,20.13
2018-09-30T21:44:27.543Z,20.40
2018-09-30T21:46:55.323Z,21.13
2018-09-30T21:49:23.154Z,17.77
2018-09-30T21:51:50.950Z,18.60
2018-09-30T21:54:18.746Z,22.00
2018-09-30T21:56:46.509Z,24.00
2018-09-30T21:59:14.381Z,27.63
2018-09-30T22:01:42.309Z,18.13
2018-09-30T22:04:10.057Z,19.13
2018-09-30T22:06:37.882Z,21.03
2018-09-30T22:09:06.217Z,18.30
2018-09-30T22:11:34.000Z,20.43
2018-09-30T22:14:01.834Z,19.03
2018-09-30T22:16:29.713Z,19.70
2018-09-30T22:18:57.529Z,18.70
2018-09-30T22:21:25.350Z,21.87
2018-09-30T22:23:53.136Z,20.23
2018-09-30T22:26:20.931Z,19.23
2018-09-30T22:28:48.753Z,18.87
2018-09-30T22:31:16.563Z,19.53
2018-09-30T22:33:44.444Z,18.40
2018-09-30T22:36:12.209Z,16.70
2018-09-30T22:38:40.031Z,19.23
2018-09-30T22:41:07.944Z,14.10
2018-09-30T22:43:35.746Z,21.43
2018-09-30T22:46:03.593Z,18.57
2018-09-30T22:48:31.409Z,17.37
2018-09-30T22:50:59.280Z,18.73
2018-09-30T22:53:27.072Z,19.17
2018-09-30T22:55:54.858Z,15.83
2018-09-30T22:58:22.673Z,21.07
2018-09-30T23:00:50.503Z,20.07
2018-09-30T23:03:18.334Z,19.33
2018-09-30T23:05:46.147Z,19.07
2018-09-30T23:08:13.923Z,20.80
2018-09-30T23:10:41.706Z,20.57
2018-09-30T23:13:09.475Z,19.03
2018-09-30T23:15:37.344Z,16.83
2018-09-30T23:18:05.150Z,18.70
2018-09-30T23:20:32.910Z,16.77
2018-09-30T23:23:00.698Z,21.10
2018-09-30T23:25:28.470Z,16.57
2018-09-30T23:27:56.336Z,16.47
2018-09-30T23:30:24.139Z,17.87
2018-09-30T23:32:51.991Z,19.13
2018-09-30T23:35:19.842Z,18.40
2018-09-30T23:37:47.633Z,18.83
2018-09-30T23:40:15.409Z,14.23
2018-09-30T23:42:43.166Z,16.87
2018-09-30T23:45:10.963Z,16.63
2018-09-30T23:47:38.739Z,17.43
2018-09-30T23:50:06.659Z,17.60
2018-09-30T23:52:34.474Z,19.93
2018-09-30T23:55:02.286Z,23.80
2018-09-30T23:57:30.066Z,19.33
2018-09-30T23:59:57.905Z,17.77
